createdAt,value
2016-11-13T18:49:36.119Z,1010.5
2016-11-13T18:49:56.661Z,1010.5
2016-11-13T18:50:17.273Z,1010.5
2016-11-13T18:50:37.818Z,1010.5
2016-11-13T18:50:58.379Z,1010.5
2016-11-13T18:51:18.922Z,1010.5
2016-11-13T18:51:39.450Z,1010.5
2016-11-13T18:51:59.983Z,1010.5
2016-11-13T18:52:20.513Z,1010.5
2016-11-13T18:52:41.046Z,1010.5
2016-11-13T18:53:01.595Z,1010.5
2016-11-13T18:53:22.180Z,1010.5
2016-11-13T18:53:42.710Z,1010.5
2016-11-13T18:54:03.249Z,1010.5
2016-11-13T18:54:23.844Z,1010.5
2016-11-13T18:54:44.367Z,1010.6
2016-11-13T18:55:04.916Z,1010.5
2016-11-13T18:55:25.492Z,1010.5
2016-11-13T18:55:46.016Z,1010.5
2016-11-13T18:56:06.561Z,1010.5
2016-11-13T18:56:27.112Z,1010.6
2016-11-13T18:56:47.749Z,1010.5
2016-11-13T18:57:08.305Z,1010.5
2016-11-13T18:57:28.839Z,1010.5
2016-11-13T18:57:49.367Z,1010.5
2016-11-13T18:58:09.909Z,1010.5
2016-11-13T18:58:30.448Z,1010.5
2016-11-13T18:58:51.099Z,1010.6
2016-11-13T18:59:11.633Z,1010.5
2016-11-13T18:59:32.182Z,1010.5
2016-11-13T18:59:52.727Z,1010.6
2016-11-13T19:00:13.265Z,1010.5
2016-11-13T19:00:33.798Z,1010.6
2016-11-13T19:00:54.337Z,1010.6
2016-11-13T19:01:14.875Z,1010.6
2016-11-13T19:01:35.408Z,1010.6
2016-11-13T19:01:55.937Z,1010.6
2016-11-13T19:02:16.492Z,1010.6
2016-11-13T19:02:37.050Z,1010.6
2016-11-13T19:02:57.613Z,1010.6
2016-11-13T19:03:18.157Z,1010.6
2016-11-13T19:03:38.684Z,1010.6
2016-11-13T19:03:59.208Z,1010.6
2016-11-13T19:04:19.788Z,1010.6
2016-11-13T19:04:40.337Z,1010.6
2016-11-13T19:05:00.891Z,1010.6
2016-11-13T19:05:21.424Z,1010.6
2016-11-13T19:05:41.961Z,1010.6
2016-11-13T19:06:02.508Z,1010.7
2016-11-13T19:06:23.040Z,1010.6
2016-11-13T19:06:44.550Z,1010.6
2016-11-13T19:07:05.107Z,1010.6
2016-11-13T19:07:25.670Z,1010.7
2016-11-13T19:07:46.211Z,1010.7
2016-11-13T19:08:06.758Z,1010.7
2016-11-13T19:08:27.311Z,1010.7
2016-11-13T19:08:47.865Z,1010.7
2016-11-13T19:09:08.401Z,1010.7
2016-11-13T19:09:28.936Z,1010.7
2016-11-13T19:09:49.464Z,1010.7
2016-11-13T19:10:09.998Z,1010.7
2016-11-13T19:10:30.561Z,1010.7
2016-11-13T19:10:51.091Z,1010.7
2016-11-13T19:11:11.632Z,1010.7
2016-11-13T19:11:32.174Z,1010.7
2016-11-13T19:11:52.720Z,1010.7
2016-11-13T19:12:13.260Z,1010.6
2016-11-13T19:12:33.791Z,1010.7
2016-11-13T19:12:54.356Z,1010.7
2016-11-13T19:13:14.891Z,1010.7
2016-11-13T19:13:35.418Z,1010.7
2016-11-13T19:13:55.961Z,1010.7
2016-11-13T19:14:16.534Z,1010.7
2016-11-13T19:14:37.078Z,1010.7
2016-11-13T19:14:57.614Z,1010.7
2016-11-13T19:15:18.163Z,1010.6
2016-11-13T19:15:38.690Z,1010.7
2016-11-13T19:15:59.233Z,1010.8
2016-11-13T19:16:19.798Z,1010.7
2016-11-13T19:16:40.360Z,1010.7
2016-11-13T19:17:00.883Z,1010.7
2016-11-13T19:17:21.441Z,1010.7
2016-11-13T19:17:41.970Z,1010.7
2016-11-13T19:18:02.540Z,1010.7
2016-11-13T19:18:23.073Z,1010.7
2016-11-13T19:18:43.609Z,1010.8
2016-11-13T19:19:04.184Z,1010.7
2016-11-13T19:19:24.735Z,1010.8
2016-11-13T19:19:45.269Z,1010.8
2016-11-13T19:20:05.844Z,1010.8
2016-11-13T19:20:26.373Z,1010.8
2016-11-13T19:20:46.964Z,1010.8
2016-11-13T19:21:07.497Z,1010.8
2016-11-13T19:21:28.038Z,1010.8
2016-11-13T19:21:48.578Z,1010.8
2016-11-13T19:22:09.108Z,1010.8
2016-11-13T19:22:29.640Z,1010.8
2016-11-13T19:22:50.196Z,1010.8
2016-11-13T19:23:10.723Z,1010.8
2016-11-13T19:23:31.262Z,1010.8
2016-11-13T19:23:51.819Z,1010.8
2016-11-13T19:24:12.382Z,1010.8
2016-11-13T19:24:32.918Z,1010.8
2016-11-13T19:24:53.451Z,1010.8
2016-11-13T19:25:13.986Z,1010.8
2016-11-13T19:25:34.524Z,1010.8
2016-11-13T19:25:55.641Z,1010.8
2016-11-13T19:26:16.171Z,1010.8
2016-11-13T19:26:36.714Z,1010.8
2016-11-13T19:26:57.263Z,1010.7
2016-11-13T19:27:17.830Z,1010.8
2016-11-13T19:27:38.435Z,1010.8
2016-11-13T19:27:58.986Z,1010.8
2016-11-13T19:28:19.512Z,1010.8
2016-11-13T19:28:40.134Z,1010.8
2016-11-13T19:29:00.678Z,1010.8
2016-11-13T19:29:42.576Z,1010.8
2016-11-13T19:30:03.522Z,1010.8
2016-11-13T19:30:24.055Z,1010.8
2016-11-13T19:30:44.668Z,1010.8
2016-11-13T19:31:05.283Z,1010.8
2016-11-13T19:31:25.831Z,1010.8
2016-11-13T19:31:46.695Z,1010.8
2016-11-13T19:32:07.229Z,1010.8
2016-11-13T19:32:27.778Z,1010.8
2016-11-13T19:32:48.332Z,1010.8
2016-11-13T19:33:08.875Z,1010.8
2016-11-13T19:33:29.419Z,1010.8
2016-11-13T19:33:49.958Z,1010.9
2016-11-13T19:34:10.537Z,1010.9
2016-11-13T19:34:31.061Z,1010.9
2016-11-13T19:34:51.596Z,1010.8
2016-11-13T19:35:12.138Z,1010.9
2016-11-13T19:35:32.698Z,1010.9
2016-11-13T19:35:53.242Z,1010.9
2016-11-13T19:36:13.782Z,1010.8
2016-11-13T19:36:34.318Z,1010.9
2016-11-13T19:36:54.842Z,1010.9
2016-11-13T19:37:15.376Z,1010.8
2016-11-13T19:37:36.226Z,1010.9
2016-11-13T19:37:56.763Z,1010.9
2016-11-13T19:38:17.304Z,1010.9
2016-11-13T19:38:37.878Z,1010.8
2016-11-13T19:38:58.426Z,1010.9
2016-11-13T19:39:18.955Z,1010.9
2016-11-13T19:39:39.492Z,1010.8
2016-11-13T19:40:00.021Z,1010.9
2016-11-13T19:40:20.576Z,1010.8
2016-11-13T19:40:41.102Z,1010.9
2016-11-13T19:41:01.629Z,1010.9
2016-11-13T19:41:22.154Z,1010.9
2016-11-13T19:41:42.698Z,1010.9
2016-11-13T19:42:03.238Z,1010.9
2016-11-13T19:42:23.781Z,1010.9
2016-11-13T19:42:44.318Z,1010.9
2016-11-13T19:43:04.853Z,1010.9
2016-11-13T19:43:25.393Z,1010.9
2016-11-13T19:43:45.969Z,1010.9
2016-11-13T19:44:06.499Z,1010.9
2016-11-13T19:44:27.036Z,1010.9
2016-11-13T19:44:47.603Z,1010.9
2016-11-13T19:45:08.134Z,1010.9
2016-11-13T19:45:28.717Z,1010.9
2016-11-13T19:45:49.258Z,1010.9
2016-11-13T19:46:09.789Z,1010.9
2016-11-13T19:46:30.315Z,1010.9
2016-11-13T19:46:50.851Z,1010.9
2016-11-13T19:47:11.372Z,1010.9
2016-11-13T19:47:31.896Z,1010.9
2016-11-13T19:47:52.431Z,1010.9
2016-11-13T19:48:12.963Z,1010.9
2016-11-13T19:48:33.499Z,1011
2016-11-13T19:48:54.040Z,1011
2016-11-13T19:49:14.572Z,1011
2016-11-13T19:49:35.099Z,1011
2016-11-13T19:49:56.652Z,1011
2016-11-13T19:50:17.207Z,1011
2016-11-13T19:50:37.744Z,1011
2016-11-13T19:50:58.292Z,1011
2016-11-13T19:51:18.876Z,1011
2016-11-13T19:51:40.063Z,1011
2016-11-13T19:52:00.608Z,1011
2016-11-13T19:52:21.144Z,1011
2016-11-13T19:52:41.690Z,1011
2016-11-13T19:53:02.251Z,1011
2016-11-13T19:53:22.802Z,1011
2016-11-13T19:53:43.350Z,1011
2016-11-13T19:54:03.876Z,1011
2016-11-13T19:54:24.402Z,1011.1
2016-11-13T19:54:45.141Z,1011
2016-11-13T19:55:05.703Z,1011.1
2016-11-13T19:55:26.231Z,1011.1
2016-11-13T19:55:46.788Z,1011
2016-11-13T19:56:07.320Z,1011.1
2016-11-13T19:56:27.894Z,1011.1
2016-11-13T19:56:48.424Z,1011.1
2016-11-13T19:57:08.960Z,1011.1
2016-11-13T19:57:29.497Z,1011.1
2016-11-13T19:57:50.034Z,1011.1
2016-11-13T19:58:10.570Z,1011.2
2016-11-13T19:58:31.118Z,1011.2
2016-11-13T19:58:51.665Z,1011.1
2016-11-13T19:59:12.223Z,1011.2
2016-11-13T19:59:32.745Z,1011.2
2016-11-13T19:59:53.290Z,1011.2
2016-11-13T20:00:13.819Z,1011.2
2016-11-13T20:00:34.387Z,1011.2
2016-11-13T20:00:54.949Z,1011.2
2016-11-13T20:01:15.476Z,1011.2
2016-11-13T20:01:36.015Z,1011.2
2016-11-13T20:01:56.567Z,1011.2
2016-11-13T20:02:17.100Z,1011.2
2016-11-13T20:02:37.661Z,1011.2
2016-11-13T20:02:58.224Z,1011.2
2016-11-13T20:03:18.764Z,1011.2
2016-11-13T20:03:39.332Z,1011.2
2016-11-13T20:03:59.863Z,1011.2
2016-11-13T20:04:20.452Z,1011.2
2016-11-13T20:04:40.996Z,1011.2
2016-11-13T20:05:01.543Z,1011.2
2016-11-13T20:05:22.097Z,1011.2
2016-11-13T20:05:42.688Z,1011.1
2016-11-13T20:06:03.228Z,1011.1
2016-11-13T20:06:23.774Z,1011.2
2016-11-13T20:06:44.338Z,1011.1
2016-11-13T20:07:04.879Z,1011.1
2016-11-13T20:07:25.418Z,1011.2
2016-11-13T20:07:45.940Z,1011.2
2016-11-13T20:08:06.476Z,1011.2
2016-11-13T20:08:27.018Z,1011.2
2016-11-13T20:08:47.593Z,1011.2
2016-11-13T20:09:08.138Z,1011.2
2016-11-13T20:09:28.730Z,1011.2
2016-11-13T20:09:52.315Z,1011.2
2016-11-13T20:10:12.940Z,1011.2
2016-11-13T20:10:33.496Z,1011.2
2016-11-13T20:10:54.030Z,1011.2
2016-11-13T20:11:14.586Z,1011.2
2016-11-13T20:11:35.148Z,1011.3
2016-11-13T20:11:55.727Z,1011.3
2016-11-13T20:12:16.266Z,1011.3
2016-11-13T20:12:36.829Z,1011.3
2016-11-13T20:12:57.371Z,1011.3
2016-11-13T20:13:17.911Z,1011.3
2016-11-13T20:13:38.455Z,1011.3
2016-11-13T20:13:59.013Z,1011.3
2016-11-13T20:14:19.571Z,1011.4
2016-11-13T20:14:40.101Z,1011.3
2016-11-13T20:15:00.672Z,1011.4
2016-11-13T20:15:21.212Z,1011.3
2016-11-13T20:15:41.747Z,1011.3
2016-11-13T20:16:02.289Z,1011.4
2016-11-13T20:16:22.820Z,1011.4
2016-11-13T20:16:43.360Z,1011.3
2016-11-13T20:17:03.918Z,1011.4
2016-11-13T20:17:24.452Z,1011.3
2016-11-13T20:17:45.037Z,1011.4
2016-11-13T20:18:05.573Z,1011.3
2016-11-13T20:18:26.097Z,1011.3
2016-11-13T20:18:46.629Z,1011.3
2016-11-13T20:19:07.157Z,1011.4
2016-11-13T20:19:27.685Z,1011.3
2016-11-13T20:19:48.260Z,1011.4
2016-11-13T20:20:08.802Z,1011.4
2016-11-13T20:20:29.340Z,1011.4
2016-11-13T20:20:49.924Z,1011.4
2016-11-13T20:21:10.483Z,1011.4
2016-11-13T20:21:31.022Z,1011.4
2016-11-13T20:21:51.549Z,1011.4
2016-11-13T20:22:12.079Z,1011.4
2016-11-13T20:22:32.665Z,1011.4
2016-11-13T20:22:53.210Z,1011.4
2016-11-13T20:23:13.738Z,1011.4
2016-11-13T20:23:34.660Z,1011.4
2016-11-13T20:23:55.201Z,1011.4
2016-11-13T20:24:15.780Z,1011.4
2016-11-13T20:24:36.328Z,1011.4
2016-11-13T20:24:56.900Z,1011.3
2016-11-13T20:25:17.439Z,1011.4
2016-11-13T20:25:38.012Z,1011.4
2016-11-13T20:25:58.545Z,1011.4
2016-11-13T20:26:19.110Z,1011.4
2016-11-13T20:26:39.647Z,1011.4
2016-11-13T20:27:00.209Z,1011.4
2016-11-13T20:27:20.751Z,1011.3
2016-11-13T20:27:41.296Z,1011.4
2016-11-13T20:28:01.832Z,1011.4
2016-11-13T20:28:22.397Z,1011.4
2016-11-13T20:28:42.941Z,1011.3
2016-11-13T20:29:03.469Z,1011.3
2016-11-13T20:29:24.002Z,1011.4
2016-11-13T20:29:44.653Z,1011.3
2016-11-13T20:30:05.203Z,1011.4
2016-11-13T20:30:25.746Z,1011.4
2016-11-13T20:30:46.278Z,1011.4
2016-11-13T20:31:06.807Z,1011.4
2016-11-13T20:31:27.639Z,1011.4
2016-11-13T20:31:48.199Z,1011.4
2016-11-13T20:32:08.725Z,1011.4
2016-11-13T20:32:29.324Z,1011.4
2016-11-13T20:32:49.850Z,1011.4
2016-11-13T20:33:10.383Z,1011.4
2016-11-13T20:33:30.950Z,1011.4
2016-11-13T20:33:51.493Z,1011.3
2016-11-13T20:34:12.027Z,1011.4
2016-11-13T20:34:32.572Z,1011.4
2016-11-13T20:34:53.101Z,1011.4
2016-11-13T20:35:13.674Z,1011.4
2016-11-13T20:35:34.229Z,1011.4
2016-11-13T20:35:54.787Z,1011.4
2016-11-13T20:36:15.321Z,1011.3
2016-11-13T20:36:35.856Z,1011.4
2016-11-13T20:36:56.502Z,1011.4
2016-11-13T20:37:18.559Z,1011.4
2016-11-13T20:37:39.643Z,1011.4
2016-11-13T20:38:00.366Z,1011.4
2016-11-13T20:38:21.121Z,1011.4
2016-11-13T20:38:41.768Z,1011.4
2016-11-13T20:39:02.397Z,1011.4
2016-11-13T20:39:23.014Z,1011.4
2016-11-13T20:39:43.681Z,1011.4
2016-11-13T20:40:04.252Z,1011.4
2016-11-13T20:40:24.986Z,1011.4
2016-11-13T20:40:45.836Z,1011.4
2016-11-13T20:41:06.624Z,1011.4
2016-11-13T20:41:27.253Z,1011.4
2016-11-13T20:41:47.942Z,1011.4
2016-11-13T20:42:08.707Z,1011.4
2016-11-13T20:42:29.605Z,1011.4
2016-11-13T20:42:50.634Z,1011.4
2016-11-13T20:43:11.230Z,1011.5
2016-11-13T20:43:31.887Z,1011.4
2016-11-13T20:43:52.674Z,1011.4
2016-11-13T20:44:13.433Z,1011.4
2016-11-13T20:44:34.210Z,1011.4
2016-11-13T20:44:54.806Z,1011.4
2016-11-13T20:45:15.518Z,1011.5
2016-11-13T20:45:36.294Z,1011.5
2016-11-13T20:45:56.952Z,1011.5
2016-11-13T20:46:17.533Z,1011.5
2016-11-13T20:46:38.444Z,1011.5
2016-11-13T20:46:59.213Z,1011.5
2016-11-13T20:47:20.042Z,1011.5
2016-11-13T20:47:40.887Z,1011.5
2016-11-13T20:48:01.549Z,1011.5
2016-11-13T20:48:22.312Z,1011.5
2016-11-13T20:48:43.050Z,1011.5
2016-11-13T20:49:03.754Z,1011.5
2016-11-13T20:49:24.349Z,1011.5
2016-11-13T20:51:24.084Z,1011.6
2016-11-13T20:51:44.815Z,1011.6
2016-11-13T20:52:05.580Z,1011.6
2016-11-13T20:52:26.237Z,1011.6
2016-11-13T20:52:46.822Z,1011.6
2016-11-13T20:53:07.496Z,1011.6
2016-11-13T20:53:28.403Z,1011.6
2016-11-13T20:53:49.252Z,1011.6
2016-11-13T20:54:09.952Z,1011.6
2016-11-13T20:54:30.487Z,1011.6
2016-11-13T20:54:51.223Z,1011.6
2016-11-13T20:55:11.957Z,1011.6
2016-11-13T20:55:32.498Z,1011.6
2016-11-13T20:55:53.529Z,1011.6
2016-11-13T20:56:14.061Z,1011.6
2016-11-13T20:56:34.597Z,1011.6
2016-11-13T20:56:55.132Z,1011.5
2016-11-13T20:57:16.982Z,1011.6
2016-11-13T20:57:38.226Z,1011.6
2016-11-13T20:57:59.494Z,1011.6
2016-11-13T20:58:20.210Z,1011.6
2016-11-13T20:58:40.944Z,1011.6
2016-11-13T20:59:01.614Z,1011.5
2016-11-13T20:59:22.535Z,1011.6
2016-11-13T20:59:43.219Z,1011.6
2016-11-13T21:00:04.803Z,1011.6
2016-11-13T21:00:25.506Z,1011.6
2016-11-13T21:00:46.219Z,1011.6
2016-11-13T21:01:06.971Z,1011.6
2016-11-13T21:01:27.696Z,1011.6
2016-11-13T21:01:48.404Z,1011.7
2016-11-13T21:02:09.064Z,1011.7
2016-11-13T21:02:29.961Z,1011.7
2016-11-13T21:02:50.775Z,1011.7
2016-11-13T21:03:11.538Z,1011.8
2016-11-13T21:03:32.346Z,1011.8
2016-11-13T21:03:53.084Z,1011.8
2016-11-13T21:04:13.808Z,1011.9
2016-11-13T21:04:34.442Z,1011.8
2016-11-13T21:04:55.246Z,1011.8
2016-11-13T21:05:16.112Z,1011.9
2016-11-13T21:05:36.726Z,1011.8
2016-11-13T21:05:57.256Z,1011.8
2016-11-13T21:06:17.787Z,1011.8
2016-11-13T21:06:38.309Z,1011.8
2016-11-13T21:06:58.851Z,1011.8
2016-11-13T21:07:19.429Z,1011.8
2016-11-13T21:07:40.595Z,1011.8
2016-11-13T21:08:01.762Z,1011.8
2016-11-13T21:08:22.763Z,1011.8
2016-11-13T21:08:43.406Z,1011.7
2016-11-13T21:09:04.129Z,1011.8
2016-11-13T21:09:25.216Z,1011.8
2016-11-13T21:09:46.184Z,1011.8
2016-11-13T21:10:07.035Z,1011.8
2016-11-13T21:10:27.917Z,1011.8
2016-11-13T21:10:48.639Z,1011.8
2016-11-13T21:11:09.414Z,1011.8
2016-11-13T21:12:09.316Z,1011.8
2016-11-13T21:12:29.959Z,1011.8
2016-11-13T21:12:50.811Z,1011.9
2016-11-13T21:13:11.347Z,1011.9
2016-11-13T21:13:31.889Z,1011.8
2016-11-13T21:13:52.467Z,1011.8
2016-11-13T21:14:13.013Z,1011.8
2016-11-13T21:14:33.574Z,1011.8
2016-11-13T21:14:54.238Z,1011.8
2016-11-13T21:15:16.041Z,1011.8
2016-11-13T21:15:37.743Z,1011.8
2016-11-13T21:15:58.503Z,1011.8
2016-11-13T21:16:19.385Z,1011.8
2016-11-13T21:16:40.122Z,1011.8
2016-11-13T21:17:00.687Z,1011.8
2016-11-13T21:17:21.753Z,1011.8
2016-11-13T21:17:42.495Z,1011.8
2016-11-13T21:18:03.333Z,1011.8
2016-11-13T21:18:24.404Z,1011.8
2016-11-13T21:18:45.059Z,1011.8
2016-11-13T21:19:06.095Z,1011.8
2016-11-13T21:19:27.109Z,1011.9
2016-11-13T21:19:47.798Z,1011.8
2016-11-13T21:20:08.531Z,1011.9
2016-11-13T21:20:29.217Z,1011.9
2016-11-13T21:20:50.222Z,1011.9
2016-11-13T21:21:11.301Z,1011.8
2016-11-13T21:21:32.128Z,1011.9
2016-11-13T21:21:52.985Z,1011.9
2016-11-13T21:22:13.747Z,1011.9
2016-11-13T21:22:34.337Z,1011.9
2016-11-13T21:22:55.045Z,1011.9
2016-11-13T21:23:15.752Z,1011.9
2016-11-13T21:23:36.338Z,1011.9
2016-11-13T21:23:56.877Z,1011.9
2016-11-13T21:24:17.407Z,1011.9
2016-11-13T21:24:37.939Z,1011.9
2016-11-13T21:24:58.471Z,1011.9
2016-11-13T21:25:19.503Z,1011.9
2016-11-13T21:25:41.391Z,1011.9
2016-11-13T21:26:03.012Z,1011.9
2016-11-13T21:26:23.826Z,1011.9
2016-11-13T21:26:44.880Z,1011.9
2016-11-13T21:27:06.005Z,1011.9
2016-11-13T21:27:26.871Z,1011.9
2016-11-13T21:27:48.360Z,1011.9
2016-11-13T21:28:10.247Z,1011.9
2016-11-13T21:28:32.077Z,1011.9
2016-11-13T21:28:52.676Z,1011.9
2016-11-13T21:29:14.272Z,1011.9
2016-11-13T21:29:34.948Z,1011.9
2016-11-13T21:29:55.745Z,1011.8
2016-11-13T21:30:16.275Z,1011.8
2016-11-13T21:30:37.287Z,1011.9
2016-11-13T21:30:57.853Z,1011.9
2016-11-13T21:31:18.385Z,1011.8
2016-11-13T21:31:38.947Z,1011.8
2016-11-13T21:32:00.940Z,1011.9
2016-11-13T21:32:22.454Z,1011.9
2016-11-13T21:32:43.729Z,1011.9
2016-11-13T21:33:04.976Z,1011.9
2016-11-13T21:33:25.996Z,1011.9
2016-11-13T21:33:47.326Z,1011.9
2016-11-13T21:34:08.686Z,1011.9
2016-11-13T21:34:29.701Z,1011.9
2016-11-13T21:34:50.835Z,1011.9
2016-11-13T21:35:11.888Z,1011.9
2016-11-13T21:35:33.229Z,1011.9
2016-11-13T21:35:54.459Z,1011.8
2016-11-13T21:36:15.503Z,1011.9
2016-11-13T21:36:36.705Z,1011.8
2016-11-13T21:36:57.847Z,1011.8
2016-11-13T21:37:19.293Z,1011.9
2016-11-13T21:37:39.934Z,1011.9
2016-11-13T21:38:00.464Z,1011.8
2016-11-13T21:38:21.006Z,1011.8
2016-11-13T21:38:41.856Z,1011.9
2016-11-13T21:39:03.180Z,1011.8
2016-11-13T21:39:24.828Z,1011.8
2016-11-13T21:39:45.812Z,1011.9
2016-11-13T21:40:06.829Z,1011.8
2016-11-13T21:40:27.844Z,1011.9
2016-11-13T21:40:48.971Z,1011.9
2016-11-13T21:41:10.313Z,1011.8
2016-11-13T21:41:31.847Z,1011.9
2016-11-13T21:41:52.696Z,1011.9
2016-11-13T21:42:13.653Z,1011.9
2016-11-13T21:42:34.272Z,1011.9
2016-11-13T21:42:55.200Z,1011.9
2016-11-13T21:43:16.275Z,1011.9
2016-11-13T21:43:37.457Z,1011.9
2016-11-13T21:43:58.587Z,1011.9
2016-11-13T21:44:19.524Z,1011.9
2016-11-13T21:44:40.390Z,1011.9
2016-11-13T21:45:01.283Z,1011.9
2016-11-13T21:45:22.166Z,1011.9
2016-11-13T21:45:42.957Z,1012
2016-11-13T21:46:03.736Z,1011.9
2016-11-13T21:46:24.497Z,1011.9
2016-11-13T21:46:45.033Z,1011.9
2016-11-13T21:47:05.567Z,1012
2016-11-13T21:47:26.144Z,1012
2016-11-13T21:47:46.695Z,1012
2016-11-13T21:48:07.245Z,1012
2016-11-13T21:48:27.777Z,1012
2016-11-13T21:48:48.342Z,1012
2016-11-13T21:49:09.205Z,1012
2016-11-13T21:49:31.070Z,1012
2016-11-13T21:49:52.663Z,1012
2016-11-13T21:50:13.726Z,1012
2016-11-13T21:50:34.722Z,1012
2016-11-13T21:50:55.538Z,1012
2016-11-13T21:51:16.203Z,1012
2016-11-13T21:51:36.889Z,1012
2016-11-13T21:52:04.689Z,1012
2016-11-13T21:52:25.324Z,1012.1
2016-11-13T21:52:45.863Z,1012.1
2016-11-13T21:53:06.461Z,1012.1
2016-11-13T21:53:27.387Z,1012.1
2016-11-13T21:53:48.905Z,1012.1
2016-11-13T21:54:10.356Z,1012.1
2016-11-13T21:54:31.275Z,1012.1
2016-11-13T21:54:52.645Z,1012.1
2016-11-13T21:55:13.431Z,1012.1
2016-11-13T21:55:34.652Z,1012.1
2016-11-13T21:55:55.931Z,1012.1
2016-11-13T21:56:17.113Z,1012.1
2016-11-13T21:56:38.393Z,1012.1
2016-11-13T21:56:59.800Z,1012.1
2016-11-13T21:57:21.179Z,1012.1
2016-11-13T21:57:42.853Z,1012.1
2016-11-13T21:58:04.030Z,1012.1
2016-11-13T21:58:25.101Z,1012.1
2016-11-13T21:58:45.635Z,1012.1
2016-11-13T21:59:06.171Z,1012.1
2016-11-13T21:59:26.715Z,1012.1
2016-11-13T21:59:47.245Z,1012.1
2016-11-13T22:00:12.286Z,1012.1
2016-11-13T22:00:34.954Z,1012.1
2016-11-13T22:00:56.156Z,1012.1
2016-11-13T22:01:17.234Z,1012.1
2016-11-13T22:01:38.335Z,1012.1
2016-11-13T22:01:59.428Z,1012.1
2016-11-13T22:02:20.478Z,1012.1
2016-11-13T22:02:41.588Z,1012.1
2016-11-13T22:03:02.123Z,1012.2
2016-11-13T22:03:23.383Z,1012.1
2016-11-13T22:03:44.436Z,1012.1
2016-11-13T22:04:05.492Z,1012.1
2016-11-13T22:04:26.825Z,1012.1
2016-11-13T22:04:48.261Z,1012.1
2016-11-13T22:05:09.412Z,1012.1
2016-11-13T22:05:31.010Z,1012.1
2016-11-13T22:05:52.731Z,1012.1
2016-11-13T22:06:14.044Z,1012.1
2016-11-13T22:06:34.753Z,1012
2016-11-13T22:06:55.288Z,1012.1
2016-11-13T22:07:15.831Z,1012.1
2016-11-13T22:07:36.404Z,1012
2016-11-13T22:07:56.960Z,1012
2016-11-13T22:08:17.500Z,1012
2016-11-13T22:08:38.668Z,1012.1
2016-11-13T22:09:00.735Z,1012
2016-11-13T22:09:22.641Z,1012.1
2016-11-13T22:09:43.607Z,1012.1
2016-11-13T22:10:04.148Z,1012.1
2016-11-13T22:10:24.697Z,1012.1
2016-11-13T22:10:45.256Z,1012.1
2016-11-13T22:11:05.796Z,1012
2016-11-13T22:11:26.333Z,1012
2016-11-13T22:11:46.876Z,1012
2016-11-13T22:12:32.586Z,1012.1
2016-11-13T22:12:53.158Z,1012.1
2016-11-13T22:13:13.719Z,1012.1
2016-11-13T22:13:34.254Z,1012.1
2016-11-13T22:13:54.790Z,1012.1
2016-11-13T22:14:15.370Z,1012.1
2016-11-13T22:14:35.943Z,1012.1
2016-11-13T22:14:56.480Z,1012.1
2016-11-13T22:15:17.515Z,1012.1
2016-11-13T22:15:40.310Z,1012.1
2016-11-13T22:16:02.198Z,1012.1
2016-11-13T22:16:23.521Z,1012.1
2016-11-13T22:16:44.789Z,1012
2016-11-13T22:17:06.041Z,1012.1
2016-11-13T22:17:27.244Z,1012.1
2016-11-13T22:17:48.481Z,1012.1
2016-11-13T22:18:09.057Z,1012.1
2016-11-13T22:18:29.592Z,1012.1
2016-11-13T22:18:50.168Z,1012.1
2016-11-13T22:19:10.760Z,1012.1
2016-11-13T22:19:31.304Z,1012.1
2016-11-13T22:19:51.837Z,1012.2
2016-11-13T22:20:17.013Z,1012.1
2016-11-13T22:20:40.949Z,1012.1
2016-11-13T22:21:03.183Z,1012.1
2016-11-13T22:21:24.896Z,1012.1
2016-11-13T22:21:47.228Z,1012.1
2016-11-13T22:22:09.092Z,1012.1
2016-11-13T22:22:30.708Z,1012.1
2016-11-13T22:22:52.900Z,1012.1
2016-11-13T22:23:15.007Z,1012.1
2016-11-13T22:23:35.856Z,1012.1
2016-11-13T22:23:57.030Z,1012.1
2016-11-13T22:24:18.297Z,1012.1
2016-11-13T22:24:39.658Z,1012.1
2016-11-13T22:25:01.442Z,1012.1
2016-11-13T22:25:21.975Z,1012.1
2016-11-13T22:25:42.507Z,1012.1
2016-11-13T22:26:03.048Z,1012.1
2016-11-13T22:26:23.583Z,1012.1
2016-11-13T22:26:44.123Z,1012.1
2016-11-13T22:27:04.663Z,1012.1
2016-11-13T22:27:25.245Z,1012.1
2016-11-13T22:27:45.775Z,1012.1
2016-11-13T22:28:06.316Z,1012.1
2016-11-13T22:28:26.876Z,1012.1
2016-11-13T22:28:47.409Z,1012.1
2016-11-13T22:29:07.954Z,1012
2016-11-13T22:29:28.480Z,1012.1
2016-11-13T22:29:49.026Z,1012.1
2016-11-13T22:30:10.156Z,1012.1
2016-11-13T22:30:30.715Z,1012.1
2016-11-13T22:30:51.266Z,1012.1
2016-11-13T22:31:11.842Z,1012.1
2016-11-13T22:31:32.352Z,1012.1
2016-11-13T22:31:52.893Z,1012.1
2016-11-13T22:32:13.417Z,1012.1
2016-11-13T22:32:33.972Z,1012.2
2016-11-13T22:32:54.505Z,1012.1
2016-11-13T22:33:15.070Z,1012.1
2016-11-13T22:33:35.629Z,1012.2
2016-11-13T22:33:56.169Z,1012.2
2016-11-13T22:34:16.737Z,1012.2
2016-11-13T22:34:37.271Z,1012.2
2016-11-13T22:34:57.795Z,1012.2
2016-11-13T22:35:18.330Z,1012.2
2016-11-13T22:35:38.883Z,1012.2
2016-11-13T22:35:59.461Z,1012.2
2016-11-13T22:36:20.013Z,1012.2
2016-11-13T22:36:40.568Z,1012.2
2016-11-13T22:37:01.096Z,1012.2
2016-11-13T22:37:21.633Z,1012.2
2016-11-13T22:37:42.184Z,1012.2
2016-11-13T22:38:02.713Z,1012.2
2016-11-13T22:38:23.277Z,1012.2
2016-11-13T22:38:43.814Z,1012.2
2016-11-13T22:39:04.354Z,1012.2
2016-11-13T22:39:24.912Z,1012.2
2016-11-13T22:39:45.475Z,1012.2
2016-11-13T22:40:06.017Z,1012.2
2016-11-13T22:40:26.549Z,1012.2
2016-11-13T22:40:47.092Z,1012.2
2016-11-13T22:41:07.662Z,1012.2
2016-11-13T22:41:28.230Z,1012.2
2016-11-13T22:41:48.771Z,1012.2
2016-11-13T22:42:09.312Z,1012.2
2016-11-13T22:42:29.847Z,1012.1
2016-11-13T22:42:50.411Z,1012.1
2016-11-13T22:43:10.951Z,1012.1
2016-11-13T22:43:31.485Z,1012.1
2016-11-13T22:43:52.074Z,1012.1
2016-11-13T22:44:12.622Z,1012.1
2016-11-13T22:44:33.163Z,1012.1
2016-11-13T22:44:53.716Z,1012.1
2016-11-13T22:45:14.266Z,1012.1
2016-11-13T22:45:34.795Z,1012.1
2016-11-13T22:45:55.340Z,1012.1
2016-11-13T22:46:15.911Z,1012.1
2016-11-13T22:46:36.447Z,1012.1
2016-11-13T22:46:56.998Z,1012.1
2016-11-13T22:47:17.539Z,1012.1
2016-11-13T22:47:38.086Z,1012.1
2016-11-13T22:47:58.627Z,1012.2
2016-11-13T22:48:19.164Z,1012.1
2016-11-13T22:48:39.769Z,1012.1
2016-11-13T22:49:00.311Z,1012.1
2016-11-13T22:49:20.921Z,1012.1
2016-11-13T22:49:41.454Z,1012.1
2016-11-13T22:50:02.000Z,1012.1
2016-11-13T22:50:22.534Z,1012.1
2016-11-13T22:50:43.109Z,1012.1
2016-11-13T22:51:03.629Z,1012.1
2016-11-13T22:51:24.183Z,1012.1
2016-11-13T22:51:44.763Z,1012.1
2016-11-13T22:52:05.309Z,1012.1
2016-11-13T22:52:25.844Z,1012.2
2016-11-13T22:52:46.388Z,1012.2
2016-11-13T22:53:06.919Z,1012.2
2016-11-13T22:53:27.456Z,1012.1
2016-11-13T22:53:48.012Z,1012.2
2016-11-13T22:54:08.569Z,1012.1
2016-11-13T22:54:29.117Z,1012.1
2016-11-13T22:54:49.694Z,1012.1
2016-11-13T22:55:10.269Z,1012.1
2016-11-13T22:55:30.835Z,1012.1
2016-11-13T22:55:51.375Z,1012.1
2016-11-13T22:56:11.909Z,1012.1
2016-11-13T22:56:32.474Z,1012.1
2016-11-13T22:56:53.042Z,1012
2016-11-13T22:57:13.586Z,1012.1
2016-11-13T22:57:34.142Z,1012.1
2016-11-13T22:57:54.679Z,1012.1
2016-11-13T22:58:15.222Z,1012
2016-11-13T22:58:35.764Z,1012.1
2016-11-13T22:58:56.307Z,1012.1
2016-11-13T22:59:16.872Z,1012
2016-11-13T22:59:37.411Z,1012.1
2016-11-13T22:59:57.949Z,1012.1
2016-11-13T23:00:18.515Z,1012.1
2016-11-13T23:00:39.071Z,1012.1
2016-11-13T23:00:59.611Z,1012.1
2016-11-13T23:01:20.181Z,1012.1
2016-11-13T23:01:41.216Z,1012.1
2016-11-13T23:02:01.787Z,1012.1
2016-11-13T23:02:22.417Z,1012.1
2016-11-13T23:02:42.950Z,1012.1
2016-11-13T23:03:03.510Z,1012.1
2016-11-13T23:03:24.079Z,1012.1
2016-11-13T23:03:44.630Z,1012.1
2016-11-13T23:04:05.173Z,1012.1
2016-11-13T23:04:25.716Z,1012.2
2016-11-13T23:04:46.257Z,1012.1
2016-11-13T23:05:06.790Z,1012.1
2016-11-13T23:05:27.331Z,1012.1
2016-11-13T23:05:47.902Z,1012.1
2016-11-13T23:06:08.440Z,1012.2
2016-11-13T23:06:28.987Z,1012.1
2016-11-13T23:06:49.542Z,1012.1
2016-11-13T23:07:10.083Z,1012.1
2016-11-13T23:07:30.633Z,1012.2
2016-11-13T23:07:51.203Z,1012.1
2016-11-13T23:08:11.738Z,1012.1
2016-11-13T23:08:32.286Z,1012.1
2016-11-13T23:08:52.819Z,1012.1
2016-11-13T23:09:13.359Z,1012.1
2016-11-13T23:09:33.900Z,1012.1
2016-11-13T23:09:54.442Z,1012.1
2016-11-13T23:10:15.031Z,1012.1
2016-11-13T23:10:35.573Z,1012.1
2016-11-13T23:10:56.103Z,1012
2016-11-13T23:11:16.646Z,1012.1
2016-11-13T23:11:37.183Z,1012.1
2016-11-13T23:11:57.725Z,1012.1
2016-11-13T23:12:18.277Z,1012.1